Time;durP1;ratioP1;P1;durP2;ratioP2;P2;SDS_P1;SDS_P2;PMS_P1;PMS_P2;Temp;Humidity;BMP_temperature;BMP_pressure;BME280_temperature;BME280_humidity;BME280_pressure;Samples;Min_cycle;Max_cycle;Signal;HPM_P1;HPM_P2
2022/10/29 00:02:20;;;;;;;10.23;4.25;;;15.90;99.90;;;;;;5072336;28;20047;-75
2022/10/29 00:04:46;;;;;;;11.52;5.20;;;15.90;99.90;;;;;;5081806;28;20126;-77
2022/10/29 00:07:12;;;;;;;10.07;4.75;;;15.90;99.90;;;;;;5072138;28;20039;-74
2022/10/29 00:09:38;;;;;;;13.93;4.40;;;16.00;99.90;;;;;;5073331;28;20044;-75
2022/10/29 00:12:04;;;;;;;10.52;4.82;;;16.00;99.90;;;;;;5073561;28;20032;-76
2022/10/29 00:14:30;;;;;;;7.75;4.68;;;16.00;99.90;;;;;;5071336;28;20124;-75
2022/10/29 00:16:56;;;;;;;15.88;5.32;;;15.90;99.90;;;;;;5072388;28;20119;-79
2022/10/29 00:19:22;;;;;;;10.95;4.78;;;15.90;99.90;;;;;;5072490;28;20074;-75
2022/10/29 00:21:50;;;;;;;16.80;4.93;;;15.90;99.90;;;;;;5072066;28;20032;-75
2022/10/29 00:24:16;;;;;;;10.63;4.43;;;15.90;99.90;;;;;;5082897;28;20127;-75
2022/10/29 00:26:41;;;;;;;11.15;4.30;;;15.80;99.90;;;;;;5088363;28;20020;-75
2022/10/29 00:29:07;;;;;;;10.20;5.03;;;15.80;99.90;;;;;;5090479;28;20097;-75
2022/10/29 00:31:33;;;;;;;16.08;4.20;;;16.00;99.90;;;;;;5093438;28;20036;-75
2022/10/29 00:33:59;;;;;;;12.85;4.45;;;16.00;99.90;;;;;;5084880;28;20048;-75
2022/10/29 00:36:28;;;;;;;11.35;4.35;;;16.00;99.90;;;;;;5072999;28;20032;-76
2022/10/29 00:38:55;;;;;;;14.82;4.68;;;16.10;99.90;;;;;;5089817;28;20040;-77
2022/10/29 00:41:28;;;;;;;10.65;4.57;;;16.10;99.90;;;;;;5091769;28;20111;-75
2022/10/29 00:44:19;;;;;;;9.82;4.95;;;16.10;99.90;;;;;;5082041;28;20044;-79
2022/10/29 00:46:55;;;;;;;10.82;4.40;;;16.10;99.90;;;;;;5074223;28;20032;-78
2022/10/29 00:49:23;;;;;;;16.38;4.60;;;16.10;99.90;;;;;;5076416;28;20127;-74
2022/10/29 00:51:50;;;;;;;11.68;5.63;;;16.10;99.90;;;;;;5075224;28;20043;-77
2022/10/29 00:54:16;;;;;;;8.35;4.75;;;16.00;99.90;;;;;;5089731;28;20032;-76
2022/10/29 00:56:56;;;;;;;11.05;4.75;;;16.00;99.90;;;;;;5096846;28;20625;-74
2022/10/29 00:59:22;;;;;;;14.93;5.65;;;16.00;99.90;;;;;;5094900;28;20044;-75
2022/10/29 01:01:48;;;;;;;10.90;5.40;;;15.90;99.90;;;;;;5096896;28;20100;-75
2022/10/29 01:04:16;;;;;;;11.45;4.63;;;15.90;99.90;;;;;;5084344;28;20047;-75
2022/10/29 01:06:42;;;;;;;12.68;4.80;;;16.00;99.90;;;;;;5076371;28;20063;-75
2022/10/29 01:09:08;;;;;;;11.15;5.25;;;15.90;99.90;;;;;;5079685;28;20048;-76
2022/10/29 01:11:45;;;;;;;10.20;5.22;;;16.00;99.90;;;;;;5095784;28;20039;-75
2022/10/29 01:14:19;;;;;;;13.15;5.10;;;16.00;99.90;;;;;;5094557;28;20093;-75
2022/10/29 01:17:17;;;;;;;12.35;5.13;;;16.00;99.90;;;;;;5096541;28;20058;-75
2022/10/29 01:20:14;;;;;;;10.88;5.88;;;15.90;99.90;;;;;;5092771;28;20147;-75
2022/10/29 01:23:00;;;;;;;10.75;5.15;;;15.70;99.90;;;;;;5070641;28;20383;-75
2022/10/29 01:25:54;;;;;;;12.40;5.72;;;15.60;99.90;;;;;;5063579;28;20043;-76
2022/10/29 01:28:40;;;;;;;13.32;6.25;;;15.50;99.90;;;;;;5075738;28;20048;-76
2022/10/29 01:31:43;;;;;;;19.67;5.90;;;15.70;99.90;;;;;;5054925;28;20037;-77
2022/10/29 01:34:45;;;;;;;17.15;5.63;;;15.70;99.90;;;;;;5077696;28;20203;-76
2022/10/29 01:37:22;;;;;;;11.38;5.95;;;15.70;99.90;;;;;;5074672;28;20388;-76
2022/10/29 01:39:58;;;;;;;10.10;6.40;;;;;;;;;;5075858;28;20044;-77
2022/10/29 01:42:33;;;;;;;17.63;6.05;;;15.60;99.90;;;;;;5076726;28;20044;-77
2022/10/29 01:45:24;;;;;;;16.45;5.75;;;15.60;99.90;;;;;;5093512;28;20044;-77
2022/10/29 01:48:06;;;;;;;8.55;5.25;;;15.70;99.90;;;;;;5095695;28;20027;-76
2022/10/29 01:50:34;;;;;;;12.07;5.40;;;15.70;99.90;;;;;;5094477;28;20395;-77
2022/10/29 01:53:02;;;;;;;11.88;5.57;;;15.60;99.90;;;;;;5085680;28;20056;-77
2022/10/29 01:55:33;;;;;;;19.05;6.57;;;15.70;99.90;;;;;;5095448;28;20047;-77
2022/10/29 01:58:01;;;;;;;17.65;6.30;;;15.60;99.90;;;;;;5093347;28;20113;-77
2022/10/29 02:00:43;;;;;;;11.38;6.18;;;15.60;99.90;;;;;;5095206;28;20040;-77
2022/10/29 02:03:42;;;;;;;16.50;6.03;;;15.60;99.90;;;;;;5091710;28;20068;-77
2022/10/29 02:06:21;;;;;;;13.68;5.90;;;15.60;99.90;;;;;;5064805;28;20037;-76
2022/10/29 02:09:07;;;;;;;17.27;5.85;;;15.40;99.90;;;;;;5075206;28;20496;-77
2022/10/29 02:11:57;;;;;;;13.48;6.43;;;15.20;99.90;;;;;;5058889;28;20408;-77
2022/10/29 02:14:34;;;;;;;18.00;5.93;;;15.40;99.90;;;;;;5075542;28;20070;-75
2022/10/29 02:17:01;;;;;;;15.25;6.13;;;15.30;99.90;;;;;;5073652;28;20634;-75
2022/10/29 02:19:32;;;;;;;10.75;5.85;;;15.30;99.90;;;;;;5073677;28;20048;-77
2022/10/29 02:21:57;;;;;;;20.35;6.50;;;15.30;99.90;;;;;;5076384;28;20048;-75
2022/10/29 02:24:24;;;;;;;17.02;6.00;;;15.30;99.90;;;;;;5081404;28;20032;-76
2022/10/29 02:26:50;;;;;;;19.92;6.78;;;;;;;;;;5073057;28;20040;-75
2022/10/29 02:29:17;;;;;;;13.93;5.45;;;;;;;;;;5073781;28;20110;-76
2022/10/29 02:31:43;;;;;;;12.90;5.75;;;;;;;;;;5073489;28;20124;-75
2022/10/29 02:34:09;;;;;;;18.48;6.10;;;;;;;;;;5065556;28;20032;-75
2022/10/29 02:36:35;;;;;;;12.90;5.93;;;;;;;;;;5068840;28;20396;-79
2022/10/29 02:39:01;;;;;;;11.88;5.53;;;;;;;;;;5073329;28;20040;-78
2022/10/29 02:41:27;;;;;;;15.82;6.00;;;;;;;;;;5071081;28;20044;-75
2022/10/29 02:43:53;;;;;;;14.85;6.20;;;;;;;;;;5085787;28;20496;-75
2022/10/29 02:46:20;;;;;;;13.02;5.53;;;;;;;;;;5082490;28;20140;-75
2022/10/29 02:48:46;;;;;;;18.05;5.63;;;;;;;;;;5094394;28;20040;-75
2022/10/29 02:51:13;;;;;;;10.90;5.93;;;;;;;;;;5093818;28;20399;-75
2022/10/29 02:53:39;;;;;;;16.38;6.00;;;;;;;;;;5090009;28;20046;-75
2022/10/29 02:56:06;;;;;;;13.98;6.10;;;;;;;;;;5072947;28;20063;-75
2022/10/29 02:58:32;;;;;;;16.85;6.82;;;;;;;;;;5073937;28;20080;-74
2022/10/29 03:00:58;;;;;;;11.68;5.53;;;;;;;;;;5074326;28;20504;-76
2022/10/29 03:03:24;;;;;;;14.73;5.30;;;;;;;;;;5075188;28;20127;-75
2022/10/29 03:05:50;;;;;;;12.52;5.22;;;;;;;;;;5088970;28;20093;-75
2022/10/29 03:08:17;;;;;;;15.23;5.60;;;;;;;;;;5084550;28;20404;-75
2022/10/29 03:10:43;;;;;;;9.27;5.30;;;;;;;;;;5073475;28;20040;-75
2022/10/29 03:13:09;;;;;;;12.25;5.28;;;;;;;;;;5074118;28;20048;-75
2022/10/29 03:15:35;;;;;;;11.30;5.90;;;15.10;99.90;;;;;;5072871;28;20400;-79
2022/10/29 03:18:02;;;;;;;13.77;5.65;;;14.90;99.90;;;;;;5072663;28;20033;-75
2022/10/29 03:20:28;;;;;;;10.25;4.85;;;14.90;99.90;;;;;;5073964;28;20047;-75
2022/10/29 03:22:54;;;;;;;13.35;5.18;;;15.00;99.90;;;;;;5073456;28;20035;-74
2022/10/29 03:25:19;;;;;;;17.67;5.18;;;15.00;99.90;;;;;;5072601;28;20041;-75
2022/10/29 03:27:45;;;;;;;15.48;5.68;;;15.00;99.90;;;;;;5072761;28;20032;-78
2022/10/29 03:30:16;;;;;;;9.80;5.05;;;15.00;99.90;;;;;;5079312;28;20047;-75
2022/10/29 03:32:43;;;;;;;14.82;5.82;;;15.00;99.90;;;;;;5085855;28;20430;-75
2022/10/29 03:35:10;;;;;;;13.50;4.95;;;15.00;99.90;;;;;;5074062;28;20121;-75
2022/10/29 03:37:36;;;;;;;10.90;5.03;;;14.90;99.90;;;;;;5073806;28;20051;-75
2022/10/29 03:40:04;;;;;;;14.35;6.10;;;14.90;99.90;;;;;;5076504;28;20070;-74
2022/10/29 03:42:30;;;;;;;13.70;5.30;;;14.80;99.90;;;;;;5089833;28;20036;-79
2022/10/29 03:44:57;;;;;;;16.23;5.38;;;;;;;;;;5073841;28;20090;-77
2022/10/29 03:47:23;;;;;;;11.35;5.60;;;14.80;99.90;;;;;;5079320;28;20040;-75
2022/10/29 03:49:49;;;;;;;13.63;5.35;;;;;;;;;;5092091;28;20151;-75
2022/10/29 03:52:15;;;;;;;13.88;5.03;;;14.70;99.90;;;;;;5073550;28;20076;-75
2022/10/29 03:54:40;;;;;;;14.10;4.70;;;14.60;99.90;;;;;;5073789;28;20115;-75
2022/10/29 03:57:06;;;;;;;9.60;4.72;;;14.60;99.90;;;;;;5072373;28;20037;-79
2022/10/29 03:59:32;;;;;;;15.27;5.35;;;14.60;99.90;;;;;;5073507;28;20131;-75
2022/10/29 04:01:58;;;;;;;13.65;5.45;;;14.60;99.90;;;;;;5091228;28;20047;-75
2022/10/29 04:04:23;;;;;;;11.82;4.75;;;14.60;99.90;;;;;;5089719;28;20036;-75
2022/10/29 04:06:49;;;;;;;8.27;4.68;;;14.70;99.90;;;;;;5072576;28;20029;-75
2022/10/29 04:09:15;;;;;;;16.23;5.50;;;14.70;99.90;;;;;;5090049;28;20032;-75
2022/10/29 04:11:40;;;;;;;11.73;4.97;;;14.70;99.90;;;;;;5075036;28;20040;-75
2022/10/29 04:14:06;;;;;;;11.65;4.32;;;14.80;99.90;;;;;;5086003;28;20498;-75
2022/10/29 04:16:32;;;;;;;8.32;4.35;;;14.80;99.90;;;;;;5093238;28;20050;-75
2022/10/29 04:18:58;;;;;;;13.43;5.00;;;14.90;99.90;;;;;;5073624;28;20105;-75
2022/10/29 04:21:24;;;;;;;14.05;5.85;;;14.90;99.90;;;;;;5088271;28;20035;-75
2022/10/29 04:23:50;;;;;;;8.43;4.50;;;14.90;99.90;;;;;;5096612;28;20157;-75
2022/10/29 04:26:16;;;;;;;23.45;4.78;;;15.00;99.90;;;;;;5096191;28;20491;-75
2022/10/29 04:28:42;;;;;;;15.30;4.95;;;14.90;99.90;;;;;;5095914;28;20035;-76
2022/10/29 04:31:11;;;;;;;8.57;4.63;;;14.90;99.90;;;;;;5084194;28;20101;-78
2022/10/29 04:33:37;;;;;;;10.20;4.43;;;14.90;99.90;;;;;;5076703;28;20399;-79
2022/10/29 04:36:03;;;;;;;10.05;5.07;;;14.90;99.90;;;;;;5077912;28;20032;-75
2022/10/29 04:38:29;;;;;;;15.65;5.03;;;14.80;99.90;;;;;;5096709;28;20048;-78
2022/10/29 04:40:58;;;;;;;11.13;4.75;;;14.80;99.90;;;;;;5095566;28;20089;-77
2022/10/29 04:43:25;;;;;;;14.43;4.80;;;14.80;99.90;;;;;;5096426;28;20039;-75
2022/10/29 04:45:55;;;;;;;12.02;5.05;;;14.80;99.90;;;;;;5096958;28;20042;-75
2022/10/29 04:48:21;;;;;;;8.85;3.88;;;14.80;99.90;;;;;;5096592;28;20039;-74
2022/10/29 04:50:47;;;;;;;7.78;3.97;;;14.80;99.90;;;;;;5085213;28;20047;-75
2022/10/29 04:53:14;;;;;;;12.93;4.47;;;14.80;99.90;;;;;;5096638;28;20024;-75
2022/10/29 04:55:40;;;;;;;8.32;4.63;;;14.80;99.90;;;;;;5096618;28;20391;-75
2022/10/29 04:58:06;;;;;;;14.48;4.80;;;14.80;99.90;;;;;;5096587;28;20036;-76
2022/10/29 05:01:19;;;;;;;9.05;3.90;;;14.80;99.90;;;;;;5091337;28;20127;-74
2022/10/29 05:03:44;;;;;;;11.52;4.28;;;14.80;99.90;;;;;;5086331;28;20483;-75
2022/10/29 05:06:10;;;;;;;12.90;4.28;;;14.70;99.90;;;;;;5082690;28;20126;-75
2022/10/29 05:08:36;;;;;;;11.38;4.72;;;14.70;99.90;;;;;;5075542;28;20048;-75
2022/10/29 05:11:03;;;;;;;15.75;4.72;;;14.60;99.90;;;;;;5083265;28;20035;-75
2022/10/29 05:13:29;;;;;;;11.77;4.35;;;14.50;99.90;;;;;;5081671;28;20040;-76
2022/10/29 05:15:55;;;;;;;9.45;4.60;;;14.60;99.90;;;;;;5094308;28;20040;-76
2022/10/29 05:18:21;;;;;;;9.60;4.78;;;14.50;99.90;;;;;;5081983;28;20410;-74
2022/10/29 05:20:47;;;;;;;9.05;4.30;;;14.50;99.90;;;;;;5080366;28;20044;-74
2022/10/29 05:23:13;;;;;;;8.10;3.65;;;14.60;99.90;;;;;;5093886;28;20048;-75
2022/10/29 05:25:40;;;;;;;11.73;4.38;;;14.60;99.90;;;;;;5093872;28;20067;-74
2022/10/29 05:28:13;;;;;;;16.35;4.55;;;14.60;99.90;;;;;;5092460;28;20040;-75
2022/10/29 05:30:39;;;;;;;9.98;4.65;;;14.60;99.90;;;;;;5085954;28;20048;-74
2022/10/29 05:33:09;;;;;;;13.23;4.57;;;14.50;99.90;;;;;;5073301;28;20126;-74
2022/10/29 05:35:35;;;;;;;7.20;4.38;;;14.50;99.90;;;;;;5069604;28;20040;-74
2022/10/29 05:38:02;;;;;;;8.70;4.45;;;14.40;99.90;;;;;;5082162;28;20040;-74
2022/10/29 05:40:28;;;;;;;10.88;4.63;;;14.30;99.90;;;;;;5078240;28;20136;-75
2022/10/29 05:42:54;;;;;;;13.10;5.03;;;14.30;99.90;;;;;;5083202;28;20044;-74
2022/10/29 05:45:20;;;;;;;8.20;4.72;;;14.30;99.90;;;;;;5094936;28;20089;-76
2022/10/29 05:47:45;;;;;;;12.73;4.43;;;14.40;99.90;;;;;;5093100;28;20036;-75
2022/10/29 05:50:12;;;;;;;21.08;4.85;;;14.30;99.90;;;;;;5081120;28;20044;-76
2022/10/29 05:52:38;;;;;;;19.63;6.22;;;14.30;99.90;;;;;;5073947;28;20127;-76
2022/10/29 05:55:05;;;;;;;9.63;4.82;;;14.30;99.90;;;;;;5074758;28;20415;-76
2022/10/29 05:57:30;;;;;;;10.40;5.07;;;14.40;99.90;;;;;;5075674;28;20116;-76
2022/10/29 05:59:56;;;;;;;9.23;4.20;;;14.40;99.90;;;;;;5075690;28;20139;-76
2022/10/29 06:02:22;;;;;;;11.35;4.68;;;14.30;99.90;;;;;;5068954;28;20040;-75
2022/10/29 06:04:48;;;;;;;14.02;4.93;;;14.30;99.90;;;;;;5068879;28;20044;-75
2022/10/29 06:07:13;;;;;;;16.33;4.90;;;14.40;99.90;;;;;;5055482;28;20033;-75
2022/10/29 06:09:39;;;;;;;9.50;4.32;;;14.40;99.90;;;;;;5071065;28;20048;-75
2022/10/29 06:12:05;;;;;;;13.05;4.75;;;14.40;99.90;;;;;;5075520;28;20123;-75
2022/10/29 06:14:31;;;;;;;8.95;3.92;;;14.50;99.90;;;;;;5075341;28;20436;-75
2022/10/29 06:16:56;;;;;;;11.43;4.15;;;14.50;99.90;;;;;;5075015;28;20113;-76
2022/10/29 06:19:22;;;;;;;20.63;4.80;;;14.40;99.90;;;;;;5074699;28;20071;-76
2022/10/29 06:21:48;;;;;;;10.07;4.22;;;14.30;99.90;;;;;;5075022;28;20115;-76
2022/10/29 06:24:14;;;;;;;11.60;3.58;;;14.40;99.90;;;;;;5073707;28;20399;-75
2022/10/29 06:26:40;;;;;;;9.70;4.50;;;14.30;99.90;;;;;;5074636;28;20027;-76
2022/10/29 06:29:06;;;;;;;14.13;3.70;;;14.20;99.90;;;;;;5054282;28;20048;-76
2022/10/29 06:31:32;;;;;;;8.38;3.72;;;14.30;99.90;;;;;;5051290;28;20397;-76
2022/10/29 06:33:57;;;;;;;13.27;4.78;;;14.20;99.90;;;;;;5050723;28;20374;-75
2022/10/29 06:36:23;;;;;;;13.93;5.03;;;14.20;99.90;;;;;;5052366;28;20119;-76
2022/10/29 06:38:49;;;;;;;12.88;4.55;;;14.20;99.90;;;;;;5052083;28;20055;-76
2022/10/29 06:41:15;;;;;;;11.30;3.95;;;14.20;99.90;;;;;;5051057;28;20076;-75
2022/10/29 06:43:41;;;;;;;9.40;4.95;;;14.20;99.90;;;;;;5052447;28;20064;-76
2022/10/29 06:46:07;;;;;;;13.65;5.40;;;14.30;99.90;;;;;;5053123;28;20086;-76
2022/10/29 06:48:33;;;;;;;12.75;5.40;;;14.30;99.90;;;;;;5052817;28;20036;-76
2022/10/29 06:50:59;;;;;;;12.98;4.60;;;14.40;99.90;;;;;;5052774;28;20047;-76
2022/10/29 06:53:25;;;;;;;20.58;4.55;;;14.40;99.90;;;;;;5054204;28;20040;-76
2022/10/29 06:55:51;;;;;;;10.85;4.05;;;14.40;99.90;;;;;;5052594;28;20032;-76
2022/10/29 06:58:19;;;;;;;11.98;4.65;;;14.40;99.90;;;;;;5050696;28;20099;-77
2022/10/29 07:00:45;;;;;;;8.35;4.22;;;14.50;99.90;;;;;;5052263;28;20388;-76
2022/10/29 07:03:21;;;;;;;9.13;3.97;;;14.40;99.90;;;;;;5052817;28;20037;-76
2022/10/29 07:05:57;;;;;;;11.93;4.50;;;14.50;99.90;;;;;;5050626;28;20037;-76
2022/10/29 07:08:23;;;;;;;15.13;4.65;;;14.40;99.90;;;;;;5050808;28;20116;-76
2022/10/29 07:10:50;;;;;;;13.77;4.55;;;14.40;99.90;;;;;;5050544;28;20437;-76
2022/10/29 07:13:16;;;;;;;11.90;4.50;;;14.40;99.90;;;;;;5050867;28;20033;-75
2022/10/29 07:15:42;;;;;;;11.40;5.10;;;14.40;99.90;;;;;;5052224;28;20423;-76
2022/10/29 07:18:09;;;;;;;16.25;5.80;;;14.40;99.90;;;;;;5053907;28;20044;-75
2022/10/29 07:20:41;;;;;;;14.18;5.47;;;14.30;99.90;;;;;;5052732;28;20071;-76
2022/10/29 07:23:08;;;;;;;15.20;6.00;;;14.30;99.90;;;;;;5053956;28;20120;-77
2022/10/29 07:25:34;;;;;;;12.32;5.75;;;14.40;99.90;;;;;;5052692;28;20047;-76
2022/10/29 07:28:05;;;;;;;13.40;6.43;;;14.40;99.90;;;;;;5053944;28;20031;-77
2022/10/29 07:30:31;;;;;;;15.55;6.22;;;14.50;99.90;;;;;;5053623;28;20107;-79
2022/10/29 07:32:57;;;;;;;15.05;5.97;;;14.50;99.90;;;;;;5051322;28;20405;-76
2022/10/29 07:35:23;;;;;;;22.02;6.90;;;14.40;99.90;;;;;;5053530;28;20120;-79
2022/10/29 07:37:49;;;;;;;21.73;6.82;;;14.40;99.90;;;;;;5052522;28;20041;-75
2022/10/29 07:40:14;;;;;;;12.32;6.07;;;14.40;99.90;;;;;;5053785;28;20127;-76
2022/10/29 07:42:40;;;;;;;11.52;6.45;;;14.40;99.90;;;;;;5053893;28;20054;-76
2022/10/29 07:45:06;;;;;;;20.17;6.20;;;14.50;99.90;;;;;;5052557;28;20579;-79
2022/10/29 07:47:32;;;;;;;13.85;5.57;;;14.50;99.90;;;;;;5053528;28;20040;-76
2022/10/29 07:49:58;;;;;;;11.20;6.15;;;14.50;99.90;;;;;;5053391;28;20044;-76
2022/10/29 07:52:24;;;;;;;15.23;6.32;;;14.50;99.90;;;;;;5053626;28;20040;-76
2022/10/29 07:54:49;;;;;;;17.00;6.28;;;14.50;99.90;;;;;;5053710;28;20032;-76
2022/10/29 07:57:15;;;;;;;14.23;6.07;;;14.80;99.90;;;;;;5057753;28;20051;-74
2022/10/29 07:59:41;;;;;;;13.70;5.82;;;14.60;99.90;;;;;;5073802;28;20055;-76
2022/10/29 08:02:10;;;;;;;16.27;5.20;;;14.90;99.90;;;;;;5077746;28;20471;-76
2022/10/29 08:04:35;;;;;;;11.15;6.07;;;15.10;99.90;;;;;;5077702;28;20091;-76
2022/10/29 08:07:01;;;;;;;15.93;6.00;;;15.20;99.90;;;;;;5076293;28;20040;-76
2022/10/29 08:09:27;;;;;;;11.85;5.25;;;15.40;99.90;;;;;;5076174;28;20040;-75
2022/10/29 08:11:53;;;;;;;13.23;5.18;;;15.50;99.90;;;;;;5077689;28;20044;-76
2022/10/29 08:14:18;;;;;;;9.88;5.18;;;15.40;99.90;;;;;;5077774;28;20072;-76
2022/10/29 08:16:45;;;;;;;17.48;5.80;;;15.40;99.90;;;;;;5077140;28;20555;-77
2022/10/29 08:19:11;;;;;;;15.60;5.72;;;15.30;99.90;;;;;;5077510;28;20056;-76
2022/10/29 08:21:37;;;;;;;19.27;5.60;;;15.40;99.90;;;;;;5076156;28;20135;-75
2022/10/29 08:24:03;;;;;;;8.45;4.80;;;15.70;99.90;;;;;;5094499;28;20123;-75
2022/10/29 08:26:29;;;;;;;11.70;4.85;;;15.70;99.90;;;;;;5068802;28;20040;-75
2022/10/29 08:28:54;;;;;;;7.70;4.63;;;15.80;99.90;;;;;;5057285;28;20045;-74
2022/10/29 08:31:20;;;;;;;14.20;4.90;;;15.80;99.90;;;;;;5056658;28;20045;-74
2022/10/29 08:33:49;;;;;;;14.07;5.28;;;15.80;99.90;;;;;;5056821;28;20033;-73
2022/10/29 08:36:15;;;;;;;14.43;5.68;;;15.90;99.90;;;;;;5063701;28;20404;-77
2022/10/29 08:38:41;;;;;;;9.63;5.05;;;16.10;99.90;;;;;;5087058;28;20075;-74
2022/10/29 08:41:35;;;;;;;14.43;4.82;;;16.20;99.90;;;;;;5076930;28;20502;-76
2022/10/29 08:44:21;;;;;;;18.15;5.25;;;16.30;99.90;;;;;;5076897;28;20068;-75
2022/10/29 08:46:47;;;;;;;12.38;5.28;;;16.50;99.90;;;;;;5076977;28;20488;-77
2022/10/29 08:49:16;;;;;;;9.82;4.50;;;;;;;;;;5093930;28;20039;-75
2022/10/29 08:51:49;;;;;;;14.55;5.82;;;16.50;99.90;;;;;;5081026;28;20105;-77
2022/10/29 08:54:16;;;;;;;12.13;5.13;;;16.60;99.90;;;;;;5075254;28;20028;-75
2022/10/29 08:57:16;;;;;;;14.55;5.30;;;16.60;99.90;;;;;;5072552;28;20484;-74
2022/10/29 08:59:53;;;;;;;11.98;5.85;;;16.60;99.90;;;;;;5068627;28;20086;-75
2022/10/29 09:02:19;;;;;;;15.40;5.30;;;16.80;99.90;;;;;;5074653;28;20048;-74
2022/10/29 09:04:45;;;;;;;12.40;5.75;;;16.80;99.90;;;;;;5083788;28;20036;-75
2022/10/29 09:07:40;;;;;;;12.63;4.97;;;16.90;99.90;;;;;;5075849;28;20032;-77
2022/10/29 09:10:11;;;;;;;13.40;6.03;;;16.80;99.90;;;;;;5073784;28;20036;-74
2022/10/29 09:12:58;;;;;;;13.05;5.53;;;17.20;99.90;;;;;;5077419;28;20503;-75
2022/10/29 09:15:48;;;;;;;15.98;5.90;;;17.40;99.90;;;;;;5059015;28;20047;-76
2022/10/29 09:18:35;;;;;;;14.55;5.45;;;17.30;99.90;;;;;;5072966;28;20032;-75
2022/10/29 09:21:01;;;;;;;11.48;5.32;;;17.40;99.90;;;;;;5076012;28;20564;-75
2022/10/29 09:23:36;;;;;;;16.15;6.68;;;17.40;99.90;;;;;;5077705;28;20076;-75
2022/10/29 09:26:05;;;;;;;16.02;5.75;;;17.70;99.90;;;;;;5073977;28;20033;-75
2022/10/29 09:28:30;;;;;;;11.55;5.10;;;18.20;99.90;;;;;;5073841;28;20071;-76
2022/10/29 09:31:25;;;;;;;14.70;5.93;;;18.60;99.90;;;;;;5072989;28;20064;-74
2022/10/29 09:33:53;;;;;;;14.73;4.80;;;18.60;99.90;;;;;;5064434;28;20399;-78
2022/10/29 09:36:21;;;;;;;13.80;4.97;;;18.50;99.90;;;;;;5073563;28;20050;-74
2022/10/29 09:38:54;;;;;;;14.35;4.72;;;18.30;99.90;;;;;;5073355;28;20102;-74
2022/10/29 09:41:24;;;;;;;7.22;4.40;;;18.40;99.90;;;;;;5073106;28;20044;-74
2022/10/29 09:44:03;;;;;;;8.33;4.73;;;18.50;99.90;;;;;;5071804;28;20032;-73
2022/10/29 09:46:59;;;;;;;15.32;4.95;;;18.60;99.90;;;;;;5073653;28;20109;-73
2022/10/29 09:49:40;;;;;;;11.88;5.18;;;18.60;99.90;;;;;;5073266;28;20028;-78
2022/10/29 09:52:14;;;;;;;;;;;18.60;99.90;;;;;;5075237;28;20047;-73
2022/10/29 09:54:40;;;;;;;12.23;5.28;;;18.70;99.90;;;;;;5072183;28;19914;-73
2022/10/29 09:57:14;;;;;;;12.68;4.80;;;18.70;99.90;;;;;;5073530;28;20127;-73
2022/10/29 10:00:02;;;;;;;10.57;4.70;;;19.00;99.90;;;;;;5079510;28;20403;-74
2022/10/29 10:02:43;;;;;;;10.90;4.88;;;19.30;99.90;;;;;;5091714;28;20450;-73
2022/10/29 10:05:17;;;;;;;10.65;4.80;;;19.20;99.90;;;;;;5090012;28;20036;-74
2022/10/29 10:08:06;;;;;;;9.55;4.43;;;18.90;99.90;;;;;;5093449;28;20129;-77
2022/10/29 10:10:35;;;;;;;9.18;4.32;;;19.00;99.90;;;;;;5092226;28;20510;-77
2022/10/29 10:13:03;;;;;;;8.20;4.45;;;19.10;99.90;;;;;;5076518;28;20060;-74
2022/10/29 10:15:34;;;;;;;13.55;4.60;;;19.00;99.90;;;;;;5073070;28;20538;-72
2022/10/29 10:18:06;;;;;;;11.57;4.90;;;19.10;99.90;;;;;;5074287;28;20119;-73
2022/10/29 10:20:41;;;;;;;11.23;4.00;;;18.90;99.90;;;;;;5092607;28;20156;-77
2022/10/29 10:23:24;;;;;;;11.55;4.72;;;18.70;99.90;;;;;;5093425;28;20089;-76
2022/10/29 10:25:52;;;;;;;8.05;4.40;;;19.10;99.90;;;;;;5080752;28;20134;-74
2022/10/29 10:28:21;;;;;;;11.65;4.72;;;19.40;99.90;;;;;;5079222;28;20048;-75
2022/10/29 10:31:08;;;;;;;9.10;3.80;;;19.90;99.90;;;;;;5078902;28;20051;-75
2022/10/29 10:33:42;;;;;;;13.38;5.20;;;20.20;99.90;;;;;;5072569;28;20496;-80
2022/10/29 10:36:08;;;;;;;15.05;4.40;;;20.30;99.90;;;;;;5072360;28;20563;-75
2022/10/29 10:38:44;;;;;;;12.57;4.18;;;20.30;99.90;;;;;;5073111;28;20502;-74
2022/10/29 10:41:11;;;;;;;8.88;4.75;;;20.40;99.90;;;;;;5074352;28;20041;-74
2022/10/29 10:43:40;;;;;;;9.95;3.92;;;20.40;99.90;;;;;;5075761;28;20067;-77
2022/10/29 10:46:18;;;;;;;8.57;4.13;;;20.80;99.90;;;;;;5085465;28;20550;-74
2022/10/29 10:49:16;;;;;;;8.82;3.88;;;21.00;99.90;;;;;;5074087;28;20590;-73
2022/10/29 10:51:44;;;;;;;8.48;3.83;;;;;;;;;;5092604;28;20039;-74
2022/10/29 10:54:37;;;;;;;9.82;4.47;;;21.00;99.90;;;;;;5073152;28;20040;-74
2022/10/29 10:57:12;;;;;;;9.30;4.28;;;20.90;99.90;;;;;;5063227;28;20062;-74
2022/10/29 11:00:00;;;;;;;17.80;4.43;;;20.80;99.90;;;;;;5082196;28;20049;-74
2022/10/29 11:02:38;;;;;;;8.98;3.30;;;20.80;99.90;;;;;;5070653;28;20037;-74
2022/10/29 11:05:26;;;;;;;11.27;4.22;;;20.90;99.90;;;;;;5077244;28;20059;-74
2022/10/29 11:08:25;;;;;;;16.42;4.38;;;18.90;99.90;;;;;;5091534;28;20565;-73
2022/10/29 11:11:06;;;;;;;10.25;3.38;;;20.40;99.90;;;;;;5092504;28;20052;-73
2022/10/29 11:13:33;;;;;;;7.90;3.88;;;20.30;99.90;;;;;;5079308;28;20036;-74
2022/10/29 11:16:21;;;;;;;9.90;3.80;;;20.50;99.90;;;;;;5090617;28;20052;-74
2022/10/29 11:19:22;;;;;;;13.18;4.32;;;20.50;99.90;;;;;;5093133;28;20067;-74
2022/10/29 11:22:12;;;;;;;11.98;3.67;;;20.90;99.90;;;;;;5083454;28;20040;-73
2022/10/29 11:24:52;;;;;;;8.30;3.78;;;20.40;99.90;;;;;;5072385;28;20044;-74
2022/10/29 11:27:38;;;;;;;11.20;3.97;;;20.40;99.90;;;;;;5079570;28;20449;-73
2022/10/29 11:30:11;;;;;;;10.18;4.45;;;20.50;99.90;;;;;;5087372;28;20046;-75
2022/10/29 11:32:52;;;;;;;6.25;3.25;;;20.90;99.90;;;;;;5090969;28;20039;-75
2022/10/29 11:35:41;;;;;;;15.75;4.93;;;20.90;99.90;;;;;;5071270;28;20036;-75
2022/10/29 11:38:22;;;;;;;15.25;4.28;;;21.00;99.90;;;;;;5091824;28;20202;-76
2022/10/29 11:41:03;;;;;;;11.13;3.60;;;21.00;99.90;;;;;;5090632;28;20257;-75
2022/10/29 11:43:30;;;;;;;7.75;3.70;;;21.00;99.90;;;;;;5074787;28;20033;-76
2022/10/29 11:46:27;;;;;;;8.10;4.57;;;21.30;99.90;;;;;;5092742;28;20101;-75
2022/10/29 11:49:19;;;;;;;8.82;3.63;;;21.30;99.90;;;;;;5092559;28;20369;-75
2022/10/29 11:52:11;;;;;;;7.32;3.42;;;21.10;99.90;;;;;;5092395;28;20066;-75
2022/10/29 11:54:52;;;;;;;7.45;3.88;;;21.20;99.90;;;;;;5080559;28;20405;-77
2022/10/29 11:57:57;;;;;;;9.57;3.38;;;21.20;99.90;;;;;;5072852;28;20052;-75
2022/10/29 12:00:31;;;;;;;8.95;3.38;;;21.70;99.90;;;;;;5045717;28;20060;-74
2022/10/29 12:03:18;;;;;;;9.43;3.53;;;21.70;99.90;;;;;;5079628;28;20495;-74
2022/10/29 12:06:02;;;;;;;6.30;3.72;;;21.60;99.90;;;;;;5087744;28;20126;-73
2022/10/29 12:08:45;;;;;;;8.73;3.70;;;21.40;99.90;;;;;;5091495;28;20516;-75
2022/10/29 12:11:42;;;;;;;4.50;2.75;;;21.70;99.90;;;;;;5083172;28;20051;-74
2022/10/29 12:14:29;;;;;;;8.13;3.08;;;21.50;99.90;;;;;;5051186;28;20033;-74
2022/10/29 12:16:57;;;;;;;14.50;3.35;;;21.60;99.90;;;;;;5068354;28;20046;-74
2022/10/29 12:19:32;;;;;;;9.70;3.42;;;21.70;99.50;;;;;;5089746;28;20068;-74
2022/10/29 12:22:22;;;;;;;6.90;2.92;;;21.80;99.90;;;;;;5079462;28;20059;-73
2022/10/29 12:24:51;;;;;;;10.40;2.95;;;21.90;99.90;;;;;;5075429;28;20066;-75
2022/10/29 12:27:23;;;;;;;7.68;3.90;;;22.00;99.10;;;;;;5084276;28;20032;-74
2022/10/29 12:30:05;;;;;;;6.72;3.00;;;21.90;99.60;;;;;;5085628;28;20044;-74
2022/10/29 12:32:55;;;;;;;7.38;3.58;;;22.00;99.90;;;;;;5081536;28;20127;-73
2022/10/29 12:35:42;;;;;;;6.03;2.78;;;22.00;99.20;;;;;;5091957;28;20032;-72
2022/10/29 12:38:28;;;;;;;6.95;3.17;;;21.90;99.90;;;;;;5091328;28;20047;-74
2022/10/29 12:41:01;;;;;;;7.32;3.40;;;21.50;97.30;;;;;;5078313;28;20113;-77
2022/10/29 12:43:33;;;;;;;8.63;3.70;;;21.40;99.10;;;;;;5073516;28;20111;-72
2022/10/29 12:46:15;;;;;;;11.80;4.55;;;21.70;99.90;;;;;;5075736;28;20070;-75
2022/10/29 12:48:49;;;;;;;6.32;3.65;;;21.90;99.70;;;;;;5074817;28;20565;-72
2022/10/29 12:51:30;;;;;;;7.88;3.80;;;21.90;98.80;;;;;;5075166;28;20488;-72
2022/10/29 12:54:14;;;;;;;11.68;4.13;;;22.20;98.70;;;;;;5075641;28;20442;-72
2022/10/29 12:56:41;;;;;;;7.60;2.95;;;22.00;97.80;;;;;;5074775;28;20155;-74
2022/10/29 12:59:22;;;;;;;7.20;3.03;;;22.00;98.70;;;;;;5084488;28;20087;-73
2022/10/29 13:01:52;;;;;;;7.22;3.33;;;21.80;97.50;;;;;;5080673;28;20072;-72
2022/10/29 13:04:31;;;;;;;10.00;2.97;;;21.80;98.70;;;;;;5074478;28;20042;-73
2022/10/29 13:07:05;;;;;;;14.55;2.97;;;21.80;97.10;;;;;;5078831;28;20075;-72
2022/10/29 13:09:35;;;;;;;9.65;3.58;;;21.90;98.60;;;;;;5096598;28;20122;-73
2022/10/29 13:12:09;;;;;;;10.90;2.90;;;22.40;98.40;;;;;;5082724;28;20079;-73
2022/10/29 13:14:55;;;;;;;6.75;3.03;;;22.50;98.30;;;;;;5075576;28;20036;-76